sensor_id;sensor_type;location;lat;lon;timestamp;P1;durP1;ratioP1;P2;durP2;ratioP2
74926;SDS011;63488;48.092;-1.640;2023-09-19T00:01:45;2.38;;;0.70;;
74926;SDS011;63488;48.092;-1.640;2023-09-19T00:04:14;3.28;;;1.00;;
74926;SDS011;63488;48.092;-1.640;2023-09-19T00:06:40;4.30;;;1.00;;
74926;SDS011;63488;48.092;-1.640;2023-09-19T00:09:05;3.78;;;1.05;;
74926;SDS011;63488;48.092;-1.640;2023-09-19T00:11:35;2.45;;;0.90;;
74926;SDS011;63488;48.092;-1.640;2023-09-19T00:14:01;2.58;;;1.08;;
74926;SDS011;63488;48.092;-1.640;2023-09-19T00:16:26;3.83;;;1.02;;
74926;SDS011;63488;48.092;-1.640;2023-09-19T00:18:52;3.05;;;1.23;;
74926;SDS011;63488;48.092;-1.640;2023-09-19T00:21:17;2.10;;;0.95;;
74926;SDS011;63488;48.092;-1.640;2023-09-19T00:23:44;5.05;;;1.13;;
74926;SDS011;63488;48.092;-1.640;2023-09-19T00:26:09;3.92;;;0.77;;
74926;SDS011;63488;48.092;-1.640;2023-09-19T00:28:35;3.28;;;0.80;;
74926;SDS011;63488;48.092;-1.640;2023-09-19T00:31:00;3.92;;;0.95;;
74926;SDS011;63488;48.092;-1.640;2023-09-19T00:33:27;5.78;;;1.35;;
74926;SDS011;63488;48.092;-1.640;2023-09-19T00:35:54;6.65;;;0.90;;
74926;SDS011;63488;48.092;-1.640;2023-09-19T00:38:20;7.22;;;1.38;;
74926;SDS011;63488;48.092;-1.640;2023-09-19T00:40:47;6.35;;;1.10;;
74926;SDS011;63488;48.092;-1.640;2023-09-19T00:43:13;3.80;;;1.10;;
74926;SDS011;63488;48.092;-1.640;2023-09-19T00:45:39;2.65;;;1.02;;
74926;SDS011;63488;48.092;-1.640;2023-09-19T00:48:07;5.82;;;1.38;;
74926;SDS011;63488;48.092;-1.640;2023-09-19T00:50:34;3.65;;;1.10;;
74926;SDS011;63488;48.092;-1.640;2023-09-19T00:52:59;6.35;;;1.30;;
74926;SDS011;63488;48.092;-1.640;2023-09-19T00:55:25;4.90;;;1.10;;
74926;SDS011;63488;48.092;-1.640;2023-09-19T00:57:51;6.45;;;1.10;;
74926;SDS011;63488;48.092;-1.640;2023-09-19T01:00:17;7.60;;;1.27;;
74926;SDS011;63488;48.092;-1.640;2023-09-19T01:02:45;4.68;;;1.05;;
74926;SDS011;63488;48.092;-1.640;2023-09-19T01:05:10;6.70;;;1.20;;
74926;SDS011;63488;48.092;-1.640;2023-09-19T01:07:37;10.00;;;1.30;;
74926;SDS011;63488;48.092;-1.640;2023-09-19T01:10:06;5.82;;;1.30;;
74926;SDS011;63488;48.092;-1.640;2023-09-19T01:12:42;5.77;;;1.13;;
74926;SDS011;63488;48.092;-1.640;2023-09-19T01:15:11;4.75;;;1.10;;
74926;SDS011;63488;48.092;-1.640;2023-09-19T01:17:53;5.45;;;1.30;;
74926;SDS011;63488;48.092;-1.640;2023-09-19T01:25:50;4.50;;;1.10;;
74926;SDS011;63488;48.092;-1.640;2023-09-19T01:31:01;5.77;;;1.20;;
74926;SDS011;63488;48.092;-1.640;2023-09-19T01:33:28;5.05;;;1.38;;
74926;SDS011;63488;48.092;-1.640;2023-09-19T01:35:58;5.80;;;1.17;;
74926;SDS011;63488;48.092;-1.640;2023-09-19T01:38:24;5.55;;;1.08;;
74926;SDS011;63488;48.092;-1.640;2023-09-19T01:41:11;7.43;;;1.70;;
74926;SDS011;63488;48.092;-1.640;2023-09-19T01:43:41;5.18;;;1.40;;
74926;SDS011;63488;48.092;-1.640;2023-09-19T01:51:11;5.40;;;1.30;;
74926;SDS011;63488;48.092;-1.640;2023-09-19T01:53:43;5.80;;;1.33;;
74926;SDS011;63488;48.092;-1.640;2023-09-19T01:56:12;4.13;;;1.17;;
74926;SDS011;63488;48.092;-1.640;2023-09-19T01:58:51;6.23;;;1.37;;
74926;SDS011;63488;48.092;-1.640;2023-09-19T02:01:19;6.55;;;1.48;;
74926;SDS011;63488;48.092;-1.640;2023-09-19T02:03:46;7.65;;;1.20;;
74926;SDS011;63488;48.092;-1.640;2023-09-19T02:06:15;12.02;;;2.03;;
74926;SDS011;63488;48.092;-1.640;2023-09-19T02:08:42;5.07;;;1.50;;
74926;SDS011;63488;48.092;-1.640;2023-09-19T02:11:08;7.03;;;1.55;;
74926;SDS011;63488;48.092;-1.640;2023-09-19T02:13:33;6.40;;;1.30;;
74926;SDS011;63488;48.092;-1.640;2023-09-19T02:15:59;6.40;;;1.40;;
74926;SDS011;63488;48.092;-1.640;2023-09-19T02:18:24;7.78;;;1.58;;
74926;SDS011;63488;48.092;-1.640;2023-09-19T02:20:52;6.22;;;1.30;;
74926;SDS011;63488;48.092;-1.640;2023-09-19T02:23:18;6.80;;;1.60;;
74926;SDS011;63488;48.092;-1.640;2023-09-19T02:25:51;7.80;;;2.13;;
74926;SDS011;63488;48.092;-1.640;2023-09-19T02:28:16;7.60;;;1.40;;
74926;SDS011;63488;48.092;-1.640;2023-09-19T02:30:41;6.88;;;1.70;;
74926;SDS011;63488;48.092;-1.640;2023-09-19T02:33:07;7.13;;;1.75;;
74926;SDS011;63488;48.092;-1.640;2023-09-19T02:35:33;6.65;;;1.40;;
74926;SDS011;63488;48.092;-1.640;2023-09-19T02:38:01;9.68;;;1.67;;
74926;SDS011;63488;48.092;-1.640;2023-09-19T02:40:27;9.13;;;2.33;;
74926;SDS011;63488;48.092;-1.640;2023-09-19T02:42:54;9.93;;;1.80;;
74926;SDS011;63488;48.092;-1.640;2023-09-19T02:45:19;4.80;;;1.55;;
74926;SDS011;63488;48.092;-1.640;2023-09-19T02:47:45;6.93;;;1.50;;
74926;SDS011;63488;48.092;-1.640;2023-09-19T02:50:11;10.20;;;1.70;;
74926;SDS011;63488;48.092;-1.640;2023-09-19T02:52:37;5.63;;;1.30;;
74926;SDS011;63488;48.092;-1.640;2023-09-19T02:55:03;7.88;;;1.50;;
74926;SDS011;63488;48.092;-1.640;2023-09-19T02:57:30;5.68;;;1.40;;
74926;SDS011;63488;48.092;-1.640;2023-09-19T02:59:58;7.40;;;1.35;;
74926;SDS011;63488;48.092;-1.640;2023-09-19T03:02:26;5.78;;;1.50;;
74926;SDS011;63488;48.092;-1.640;2023-09-19T03:04:52;8.07;;;1.45;;
74926;SDS011;63488;48.092;-1.640;2023-09-19T03:07:18;6.22;;;1.48;;
74926;SDS011;63488;48.092;-1.640;2023-09-19T03:09:43;5.50;;;1.20;;
74926;SDS011;63488;48.092;-1.640;2023-09-19T03:12:10;6.20;;;1.45;;
74926;SDS011;63488;48.092;-1.640;2023-09-19T03:14:35;7.68;;;1.35;;
74926;SDS011;63488;48.092;-1.640;2023-09-19T03:17:01;7.82;;;1.60;;
74926;SDS011;63488;48.092;-1.640;2023-09-19T03:19:29;6.35;;;1.48;;
74926;SDS011;63488;48.092;-1.640;2023-09-19T03:21:55;8.68;;;1.30;;
74926;SDS011;63488;48.092;-1.640;2023-09-19T03:24:22;8.40;;;1.67;;
74926;SDS011;63488;48.092;-1.640;2023-09-19T03:26:48;7.78;;;1.80;;
74926;SDS011;63488;48.092;-1.640;2023-09-19T03:29:13;6.82;;;1.30;;
74926;SDS011;63488;48.092;-1.640;2023-09-19T03:31:39;8.38;;;1.40;;
74926;SDS011;63488;48.092;-1.640;2023-09-19T03:34:04;5.43;;;1.42;;
74926;SDS011;63488;48.092;-1.640;2023-09-19T03:36:30;5.38;;;1.42;;
74926;SDS011;63488;48.092;-1.640;2023-09-19T03:38:55;8.35;;;1.70;;
74926;SDS011;63488;48.092;-1.640;2023-09-19T03:41:20;6.28;;;1.40;;
74926;SDS011;63488;48.092;-1.640;2023-09-19T03:43:46;7.00;;;1.50;;
74926;SDS011;63488;48.092;-1.640;2023-09-19T03:46:11;7.90;;;1.40;;
74926;SDS011;63488;48.092;-1.640;2023-09-19T03:48:40;7.03;;;1.33;;
74926;SDS011;63488;48.092;-1.640;2023-09-19T03:51:05;9.65;;;1.40;;
74926;SDS011;63488;48.092;-1.640;2023-09-19T03:53:30;6.05;;;1.60;;
74926;SDS011;63488;48.092;-1.640;2023-09-19T03:55:57;7.28;;;1.80;;
74926;SDS011;63488;48.092;-1.640;2023-09-19T03:58:22;6.40;;;1.17;;
74926;SDS011;63488;48.092;-1.640;2023-09-19T04:00:47;7.32;;;1.50;;
74926;SDS011;63488;48.092;-1.640;2023-09-19T04:03:14;5.00;;;1.30;;
74926;SDS011;63488;48.092;-1.640;2023-09-19T04:08:09;9.27;;;1.57;;
74926;SDS011;63488;48.092;-1.640;2023-09-19T04:10:34;8.95;;;1.90;;
74926;SDS011;63488;48.092;-1.640;2023-09-19T04:13:00;8.52;;;1.80;;
74926;SDS011;63488;48.092;-1.640;2023-09-19T04:15:26;9.90;;;1.73;;
74926;SDS011;63488;48.092;-1.640;2023-09-19T04:17:51;11.23;;;1.80;;
74926;SDS011;63488;48.092;-1.640;2023-09-19T04:20:17;7.15;;;1.60;;
74926;SDS011;63488;48.092;-1.640;2023-09-19T04:22:43;8.93;;;1.58;;
74926;SDS011;63488;48.092;-1.640;2023-09-19T04:25:08;6.35;;;1.65;;
74926;SDS011;63488;48.092;-1.640;2023-09-19T04:27:33;7.05;;;1.35;;
74926;SDS011;63488;48.092;-1.640;2023-09-19T04:29:59;4.82;;;1.55;;
74926;SDS011;63488;48.092;-1.640;2023-09-19T04:32:33;6.90;;;1.70;;
74926;SDS011;63488;48.092;-1.640;2023-09-19T04:35:01;7.15;;;1.38;;
74926;SDS011;63488;48.092;-1.640;2023-09-19T04:37:28;6.82;;;1.55;;
74926;SDS011;63488;48.092;-1.640;2023-09-19T04:39:53;9.07;;;1.90;;
74926;SDS011;63488;48.092;-1.640;2023-09-19T04:42:19;8.10;;;1.67;;
74926;SDS011;63488;48.092;-1.640;2023-09-19T04:44:44;8.43;;;1.33;;
74926;SDS011;63488;48.092;-1.640;2023-09-19T04:47:10;8.55;;;1.30;;
74926;SDS011;63488;48.092;-1.640;2023-09-19T04:49:37;8.88;;;1.85;;
74926;SDS011;63488;48.092;-1.640;2023-09-19T04:52:02;7.15;;;1.40;;
74926;SDS011;63488;48.092;-1.640;2023-09-19T04:54:28;8.15;;;1.88;;
74926;SDS011;63488;48.092;-1.640;2023-09-19T04:56:53;8.68;;;1.77;;
74926;SDS011;63488;48.092;-1.640;2023-09-19T04:59:18;6.28;;;1.30;;
74926;SDS011;63488;48.092;-1.640;2023-09-19T05:01:43;10.95;;;1.83;;
74926;SDS011;63488;48.092;-1.640;2023-09-19T05:04:09;6.40;;;2.00;;
74926;SDS011;63488;48.092;-1.640;2023-09-19T05:06:34;10.95;;;1.98;;
74926;SDS011;63488;48.092;-1.640;2023-09-19T05:09:00;7.53;;;1.58;;
74926;SDS011;63488;48.092;-1.640;2023-09-19T05:11:26;9.85;;;1.35;;
74926;SDS011;63488;48.092;-1.640;2023-09-19T05:13:51;5.40;;;1.27;;
74926;SDS011;63488;48.092;-1.640;2023-09-19T05:16:18;6.70;;;1.60;;
74926;SDS011;63488;48.092;-1.640;2023-09-19T05:18:43;4.95;;;0.95;;
74926;SDS011;63488;48.092;-1.640;2023-09-19T05:21:09;6.78;;;1.48;;
74926;SDS011;63488;48.092;-1.640;2023-09-19T05:23:34;4.85;;;1.08;;
74926;SDS011;63488;48.092;-1.640;2023-09-19T05:25:59;7.47;;;1.90;;
74926;SDS011;63488;48.092;-1.640;2023-09-19T05:28:25;6.82;;;1.63;;
74926;SDS011;63488;48.092;-1.640;2023-09-19T05:30:51;7.43;;;1.30;;
74926;SDS011;63488;48.092;-1.640;2023-09-19T05:33:18;8.13;;;1.50;;
74926;SDS011;63488;48.092;-1.640;2023-09-19T05:35:43;4.63;;;1.50;;
74926;SDS011;63488;48.092;-1.640;2023-09-19T05:38:09;6.15;;;1.58;;
74926;SDS011;63488;48.092;-1.640;2023-09-19T05:40:34;5.95;;;1.50;;
74926;SDS011;63488;48.092;-1.640;2023-09-19T05:43:00;7.07;;;1.67;;
74926;SDS011;63488;48.092;-1.640;2023-09-19T05:45:25;7.40;;;1.50;;
74926;SDS011;63488;48.092;-1.640;2023-09-19T05:47:52;7.97;;;1.42;;
74926;SDS011;63488;48.092;-1.640;2023-09-19T05:50:21;6.82;;;1.63;;
74926;SDS011;63488;48.092;-1.640;2023-09-19T05:52:52;7.10;;;1.42;;
74926;SDS011;63488;48.092;-1.640;2023-09-19T05:55:18;5.28;;;1.48;;
74926;SDS011;63488;48.092;-1.640;2023-09-19T05:57:48;7.10;;;1.42;;
74926;SDS011;63488;48.092;-1.640;2023-09-19T06:00:15;6.60;;;1.48;;
74926;SDS011;63488;48.092;-1.640;2023-09-19T06:02:42;8.13;;;1.73;;
74926;SDS011;63488;48.092;-1.640;2023-09-19T06:05:09;6.72;;;1.45;;
74926;SDS011;63488;48.092;-1.640;2023-09-19T06:07:37;9.20;;;1.60;;
74926;SDS011;63488;48.092;-1.640;2023-09-19T06:10:05;6.07;;;1.40;;
74926;SDS011;63488;48.092;-1.640;2023-09-19T06:12:32;8.05;;;1.55;;
74926;SDS011;63488;48.092;-1.640;2023-09-19T06:15:02;8.57;;;2.10;;
74926;SDS011;63488;48.092;-1.640;2023-09-19T06:17:28;7.10;;;1.50;;
74926;SDS011;63488;48.092;-1.640;2023-09-19T06:19:53;7.00;;;1.90;;
74926;SDS011;63488;48.092;-1.640;2023-09-19T06:22:20;5.97;;;1.58;;
74926;SDS011;63488;48.092;-1.640;2023-09-19T06:24:46;11.55;;;1.90;;
74926;SDS011;63488;48.092;-1.640;2023-09-19T06:27:12;8.05;;;1.90;;
74926;SDS011;63488;48.092;-1.640;2023-09-19T06:29:38;7.63;;;1.63;;
74926;SDS011;63488;48.092;-1.640;2023-09-19T06:32:09;9.63;;;1.50;;
74926;SDS011;63488;48.092;-1.640;2023-09-19T06:34:35;7.25;;;1.67;;
74926;SDS011;63488;48.092;-1.640;2023-09-19T06:37:00;5.95;;;1.48;;
74926;SDS011;63488;48.092;-1.640;2023-09-19T06:39:26;4.80;;;1.25;;
74926;SDS011;63488;48.092;-1.640;2023-09-19T06:41:51;6.75;;;1.45;;
74926;SDS011;63488;48.092;-1.640;2023-09-19T06:44:19;6.65;;;1.88;;
74926;SDS011;63488;48.092;-1.640;2023-09-19T06:46:46;7.38;;;1.40;;
74926;SDS011;63488;48.092;-1.640;2023-09-19T06:49:16;10.30;;;1.63;;
74926;SDS011;63488;48.092;-1.640;2023-09-19T06:51:41;6.35;;;1.48;;
74926;SDS011;63488;48.092;-1.640;2023-09-19T06:54:07;4.63;;;1.50;;
74926;SDS011;63488;48.092;-1.640;2023-09-19T06:56:32;7.80;;;1.75;;
74926;SDS011;63488;48.092;-1.640;2023-09-19T06:58:58;6.60;;;1.63;;
74926;SDS011;63488;48.092;-1.640;2023-09-19T07:01:23;6.38;;;1.75;;
74926;SDS011;63488;48.092;-1.640;2023-09-19T07:03:48;7.50;;;1.52;;
74926;SDS011;63488;48.092;-1.640;2023-09-19T07:06:14;6.28;;;1.60;;
74926;SDS011;63488;48.092;-1.640;2023-09-19T07:08:39;8.60;;;1.70;;
74926;SDS011;63488;48.092;-1.640;2023-09-19T07:11:04;12.00;;;1.70;;
74926;SDS011;63488;48.092;-1.640;2023-09-19T07:13:31;13.70;;;1.77;;
74926;SDS011;63488;48.092;-1.640;2023-09-19T07:15:58;7.22;;;1.40;;
74926;SDS011;63488;48.092;-1.640;2023-09-19T07:18:24;4.93;;;1.42;;
74926;SDS011;63488;48.092;-1.640;2023-09-19T07:20:50;8.02;;;1.50;;
74926;SDS011;63488;48.092;-1.640;2023-09-19T07:23:16;8.18;;;1.60;;
74926;SDS011;63488;48.092;-1.640;2023-09-19T07:25:43;8.23;;;1.60;;
74926;SDS011;63488;48.092;-1.640;2023-09-19T07:28:08;9.82;;;1.70;;
74926;SDS011;63488;48.092;-1.640;2023-09-19T07:30:35;8.18;;;1.63;;
74926;SDS011;63488;48.092;-1.640;2023-09-19T07:33:02;5.93;;;1.50;;
74926;SDS011;63488;48.092;-1.640;2023-09-19T07:35:27;7.38;;;1.80;;
74926;SDS011;63488;48.092;-1.640;2023-09-19T07:37:53;7.50;;;1.65;;
74926;SDS011;63488;48.092;-1.640;2023-09-19T07:40:18;11.23;;;1.98;;
74926;SDS011;63488;48.092;-1.640;2023-09-19T07:42:44;7.00;;;1.50;;
74926;SDS011;63488;48.092;-1.640;2023-09-19T07:45:12;7.72;;;1.80;;
74926;SDS011;63488;48.092;-1.640;2023-09-19T07:47:48;7.47;;;1.65;;
74926;SDS011;63488;48.092;-1.640;2023-09-19T07:50:17;11.35;;;2.05;;
74926;SDS011;63488;48.092;-1.640;2023-09-19T07:52:46;7.05;;;1.60;;
74926;SDS011;63488;48.092;-1.640;2023-09-19T07:55:12;9.63;;;1.80;;
74926;SDS011;63488;48.092;-1.640;2023-09-19T07:57:41;9.65;;;1.65;;
74926;SDS011;63488;48.092;-1.640;2023-09-19T08:00:07;8.80;;;2.05;;
74926;SDS011;63488;48.092;-1.640;2023-09-19T08:02:36;7.78;;;1.63;;
74926;SDS011;63488;48.092;-1.640;2023-09-19T08:05:05;13.30;;;2.38;;
74926;SDS011;63488;48.092;-1.640;2023-09-19T08:07:32;10.20;;;1.58;;
74926;SDS011;63488;48.092;-1.640;2023-09-19T08:09:57;6.38;;;1.60;;
74926;SDS011;63488;48.092;-1.640;2023-09-19T08:12:24;6.20;;;1.80;;
74926;SDS011;63488;48.092;-1.640;2023-09-19T08:14:50;10.20;;;2.17;;
74926;SDS011;63488;48.092;-1.640;2023-09-19T08:17:16;10.38;;;1.98;;
74926;SDS011;63488;48.092;-1.640;2023-09-19T08:19:41;11.07;;;2.05;;
74926;SDS011;63488;48.092;-1.640;2023-09-19T08:22:08;10.75;;;1.73;;
74926;SDS011;63488;48.092;-1.640;2023-09-19T08:24:35;9.02;;;1.48;;
74926;SDS011;63488;48.092;-1.640;2023-09-19T08:27:01;8.30;;;1.45;;
74926;SDS011;63488;48.092;-1.640;2023-09-19T08:29:29;6.78;;;1.73;;
74926;SDS011;63488;48.092;-1.640;2023-09-19T08:34:30;7.63;;;1.60;;
74926;SDS011;63488;48.092;-1.640;2023-09-19T08:36:58;9.90;;;1.67;;
74926;SDS011;63488;48.092;-1.640;2023-09-19T08:39:43;7.53;;;1.75;;
74926;SDS011;63488;48.092;-1.640;2023-09-19T08:42:08;8.25;;;1.60;;
74926;SDS011;63488;48.092;-1.640;2023-09-19T08:44:36;5.68;;;1.77;;
74926;SDS011;63488;48.092;-1.640;2023-09-19T08:47:21;6.82;;;1.77;;
74926;SDS011;63488;48.092;-1.640;2023-09-19T08:52:51;7.63;;;1.73;;
74926;SDS011;63488;48.092;-1.640;2023-09-19T08:55:19;8.32;;;1.48;;
74926;SDS011;63488;48.092;-1.640;2023-09-19T08:57:49;8.30;;;1.55;;
74926;SDS011;63488;48.092;-1.640;2023-09-19T09:00:15;8.90;;;1.75;;
74926;SDS011;63488;48.092;-1.640;2023-09-19T09:02:43;9.23;;;2.05;;
74926;SDS011;63488;48.092;-1.640;2023-09-19T09:05:08;6.53;;;1.55;;
74926;SDS011;63488;48.092;-1.640;2023-09-19T09:07:35;6.57;;;2.28;;
74926;SDS011;63488;48.092;-1.640;2023-09-19T09:10:04;6.47;;;1.52;;
74926;SDS011;63488;48.092;-1.640;2023-09-19T09:12:30;9.48;;;1.75;;
74926;SDS011;63488;48.092;-1.640;2023-09-19T09:14:55;8.10;;;1.52;;
74926;SDS011;63488;48.092;-1.640;2023-09-19T09:17:25;6.38;;;1.83;;
74926;SDS011;63488;48.092;-1.640;2023-09-19T09:19:53;8.45;;;1.60;;
74926;SDS011;63488;48.092;-1.640;2023-09-19T09:22:18;10.32;;;2.00;;
74926;SDS011;63488;48.092;-1.640;2023-09-19T09:24:52;11.38;;;1.70;;
74926;SDS011;63488;48.092;-1.640;2023-09-19T09:27:23;9.07;;;1.65;;
74926;SDS011;63488;48.092;-1.640;2023-09-19T09:29:49;8.05;;;2.20;;
74926;SDS011;63488;48.092;-1.640;2023-09-19T09:32:30;8.95;;;1.88;;
74926;SDS011;63488;48.092;-1.640;2023-09-19T09:34:59;7.00;;;1.92;;
74926;SDS011;63488;48.092;-1.640;2023-09-19T09:37:25;10.40;;;1.88;;
74926;SDS011;63488;48.092;-1.640;2023-09-19T09:39:56;10.55;;;2.13;;
74926;SDS011;63488;48.092;-1.640;2023-09-19T09:42:33;10.80;;;2.00;;
74926;SDS011;63488;48.092;-1.640;2023-09-19T09:45:15;9.13;;;1.85;;
74926;SDS011;63488;48.092;-1.640;2023-09-19T09:47:45;8.95;;;1.50;;
74926;SDS011;63488;48.092;-1.640;2023-09-19T09:50:26;8.20;;;1.90;;
74926;SDS011;63488;48.092;-1.640;2023-09-19T09:52:55;10.52;;;2.53;;
74926;SDS011;63488;48.092;-1.640;2023-09-19T09:55:27;12.30;;;2.10;;
74926;SDS011;63488;48.092;-1.640;2023-09-19T09:58:15;8.80;;;2.05;;
74926;SDS011;63488;48.092;-1.640;2023-09-19T10:00:52;11.15;;;2.20;;
74926;SDS011;63488;48.092;-1.640;2023-09-19T10:03:21;12.50;;;2.25;;
74926;SDS011;63488;48.092;-1.640;2023-09-19T10:05:52;9.20;;;2.47;;
74926;SDS011;63488;48.092;-1.640;2023-09-19T10:08:20;8.43;;;1.98;;
74926;SDS011;63488;48.092;-1.640;2023-09-19T10:10:46;8.35;;;2.15;;
74926;SDS011;63488;48.092;-1.640;2023-09-19T10:13:17;11.90;;;2.28;;
74926;SDS011;63488;48.092;-1.640;2023-09-19T10:15:50;6.75;;;1.80;;
74926;SDS011;63488;48.092;-1.640;2023-09-19T10:18:21;10.25;;;2.10;;
74926;SDS011;63488;48.092;-1.640;2023-09-19T10:20:47;14.40;;;2.40;;
74926;SDS011;63488;48.092;-1.640;2023-09-19T10:23:14;10.98;;;2.60;;
74926;SDS011;63488;48.092;-1.640;2023-09-19T10:25:47;11.13;;;2.75;;
74926;SDS011;63488;48.092;-1.640;2023-09-19T10:28:14;13.30;;;2.75;;
74926;SDS011;63488;48.092;-1.640;2023-09-19T10:30:43;9.75;;;2.10;;
74926;SDS011;63488;48.092;-1.640;2023-09-19T10:33:13;8.07;;;1.77;;
74926;SDS011;63488;48.092;-1.640;2023-09-19T10:38:09;9.73;;;1.63;;
74926;SDS011;63488;48.092;-1.640;2023-09-19T10:40:35;11.55;;;3.10;;
74926;SDS011;63488;48.092;-1.640;2023-09-19T10:43:02;8.60;;;2.00;;
74926;SDS011;63488;48.092;-1.640;2023-09-19T10:45:34;9.00;;;1.80;;
74926;SDS011;63488;48.092;-1.640;2023-09-19T10:48:02;12.68;;;1.92;;
74926;SDS011;63488;48.092;-1.640;2023-09-19T10:50:36;10.68;;;2.45;;
74926;SDS011;63488;48.092;-1.640;2023-09-19T10:53:02;10.20;;;2.60;;
74926;SDS011;63488;48.092;-1.640;2023-09-19T10:55:30;10.32;;;2.00;;
74926;SDS011;63488;48.092;-1.640;2023-09-19T10:57:56;10.48;;;2.13;;
74926;SDS011;63488;48.092;-1.640;2023-09-19T11:00:55;8.00;;;1.88;;
74926;SDS011;63488;48.092;-1.640;2023-09-19T11:03:21;8.05;;;1.95;;
74926;SDS011;63488;48.092;-1.640;2023-09-19T11:06:04;8.93;;;2.05;;
74926;SDS011;63488;48.092;-1.640;2023-09-19T11:19:57;7.78;;;2.10;;
74926;SDS011;63488;48.092;-1.640;2023-09-19T11:22:13;9.98;;;2.38;;
74926;SDS011;63488;48.092;-1.640;2023-09-19T11:24:38;9.13;;;2.60;;
74926;SDS011;63488;48.092;-1.640;2023-09-19T11:27:11;10.60;;;2.30;;
74926;SDS011;63488;48.092;-1.640;2023-09-19T11:29:39;8.80;;;1.83;;
74926;SDS011;63488;48.092;-1.640;2023-09-19T11:32:05;11.88;;;2.22;;
74926;SDS011;63488;48.092;-1.640;2023-09-19T11:39:39;9.20;;;1.98;;
74926;SDS011;63488;48.092;-1.640;2023-09-19T11:44:52;6.95;;;2.00;;
74926;SDS011;63488;48.092;-1.640;2023-09-19T11:47:21;6.28;;;1.73;;
74926;SDS011;63488;48.092;-1.640;2023-09-19T11:49:47;8.65;;;1.90;;
74926;SDS011;63488;48.092;-1.640;2023-09-19T11:52:18;8.45;;;1.73;;
74926;SDS011;63488;48.092;-1.640;2023-09-19T11:54:47;10.27;;;2.00;;
74926;SDS011;63488;48.092;-1.640;2023-09-19T11:57:22;8.93;;;2.03;;
74926;SDS011;63488;48.092;-1.640;2023-09-19T11:59:47;8.63;;;2.20;;
74926;SDS011;63488;48.092;-1.640;2023-09-19T12:02:14;6.65;;;2.00;;
74926;SDS011;63488;48.092;-1.640;2023-09-19T12:04:44;7.60;;;1.90;;
74926;SDS011;63488;48.092;-1.640;2023-09-19T12:07:14;10.43;;;1.98;;
74926;SDS011;63488;48.092;-1.640;2023-09-19T12:09:45;8.70;;;2.22;;
74926;SDS011;63488;48.092;-1.640;2023-09-19T12:12:22;8.55;;;2.40;;
74926;SDS011;63488;48.092;-1.640;2023-09-19T12:14:51;7.35;;;1.88;;
74926;SDS011;63488;48.092;-1.640;2023-09-19T12:17:16;7.50;;;2.00;;
74926;SDS011;63488;48.092;-1.640;2023-09-19T12:19:55;8.95;;;2.40;;
74926;SDS011;63488;48.092;-1.640;2023-09-19T12:22:20;12.25;;;2.50;;
74926;SDS011;63488;48.092;-1.640;2023-09-19T12:24:46;6.72;;;2.28;;
74926;SDS011;63488;48.092;-1.640;2023-09-19T12:27:11;11.35;;;2.47;;
74926;SDS011;63488;48.092;-1.640;2023-09-19T12:29:44;6.93;;;1.95;;
74926;SDS011;63488;48.092;-1.640;2023-09-19T12:32:10;8.25;;;1.95;;
74926;SDS011;63488;48.092;-1.640;2023-09-19T12:34:35;10.15;;;2.30;;
74926;SDS011;63488;48.092;-1.640;2023-09-19T12:37:07;8.52;;;2.20;;
74926;SDS011;63488;48.092;-1.640;2023-09-19T12:39:53;6.05;;;2.63;;
74926;SDS011;63488;48.092;-1.640;2023-09-19T12:42:39;9.45;;;2.65;;
74926;SDS011;63488;48.092;-1.640;2023-09-19T12:45:06;7.88;;;2.13;;
74926;SDS011;63488;48.092;-1.640;2023-09-19T12:47:34;9.20;;;2.40;;
74926;SDS011;63488;48.092;-1.640;2023-09-19T12:50:15;6.90;;;2.45;;
74926;SDS011;63488;48.092;-1.640;2023-09-19T12:52:47;11.02;;;2.38;;
74926;SDS011;63488;48.092;-1.640;2023-09-19T12:55:47;9.63;;;2.20;;
74926;SDS011;63488;48.092;-1.640;2023-09-19T12:58:13;10.73;;;2.03;;
74926;SDS011;63488;48.092;-1.640;2023-09-19T13:00:44;10.70;;;2.17;;
74926;SDS011;63488;48.092;-1.640;2023-09-19T13:03:14;9.35;;;2.33;;
74926;SDS011;63488;48.092;-1.640;2023-09-19T13:05:56;11.88;;;2.00;;
74926;SDS011;63488;48.092;-1.640;2023-09-19T13:08:26;9.77;;;2.50;;
74926;SDS011;63488;48.092;-1.640;2023-09-19T13:11:10;6.65;;;2.35;;
74926;SDS011;63488;48.092;-1.640;2023-09-19T13:13:44;11.02;;;2.50;;
74926;SDS011;63488;48.092;-1.640;2023-09-19T13:16:13;11.77;;;2.50;;
74926;SDS011;63488;48.092;-1.640;2023-09-19T13:18:43;10.02;;;2.53;;
74926;SDS011;63488;48.092;-1.640;2023-09-19T13:21:10;8.25;;;2.13;;
74926;SDS011;63488;48.092;-1.640;2023-09-19T13:23:37;9.52;;;2.40;;
74926;SDS011;63488;48.092;-1.640;2023-09-19T13:26:03;11.57;;;2.55;;
74926;SDS011;63488;48.092;-1.640;2023-09-19T13:28:30;6.65;;;2.38;;
74926;SDS011;63488;48.092;-1.640;2023-09-19T13:30:57;10.95;;;2.33;;
74926;SDS011;63488;48.092;-1.640;2023-09-19T13:33:22;9.02;;;2.63;;
74926;SDS011;63488;48.092;-1.640;2023-09-19T13:35:48;13.10;;;2.40;;
74926;SDS011;63488;48.092;-1.640;2023-09-19T13:38:13;7.40;;;2.38;;
74926;SDS011;63488;48.092;-1.640;2023-09-19T13:40:39;7.65;;;2.38;;
74926;SDS011;63488;48.092;-1.640;2023-09-19T13:43:07;9.48;;;2.88;;
74926;SDS011;63488;48.092;-1.640;2023-09-19T13:45:32;7.68;;;2.50;;
74926;SDS011;63488;48.092;-1.640;2023-09-19T13:47:57;11.98;;;2.67;;
74926;SDS011;63488;48.092;-1.640;2023-09-19T13:50:26;10.45;;;2.70;;
74926;SDS011;63488;48.092;-1.640;2023-09-19T13:52:54;12.20;;;3.13;;
74926;SDS011;63488;48.092;-1.640;2023-09-19T13:55:19;12.52;;;2.90;;
74926;SDS011;63488;48.092;-1.640;2023-09-19T13:57:46;8.77;;;2.42;;
74926;SDS011;63488;48.092;-1.640;2023-09-19T14:00:12;11.80;;;3.35;;
74926;SDS011;63488;48.092;-1.640;2023-09-19T14:02:41;9.07;;;2.63;;
74926;SDS011;63488;48.092;-1.640;2023-09-19T14:05:08;12.02;;;2.97;;
74926;SDS011;63488;48.092;-1.640;2023-09-19T14:07:33;11.75;;;2.75;;
74926;SDS011;63488;48.092;-1.640;2023-09-19T14:09:58;9.02;;;2.70;;
74926;SDS011;63488;48.092;-1.640;2023-09-19T14:12:24;8.77;;;2.78;;
74926;SDS011;63488;48.092;-1.640;2023-09-19T14:14:49;8.52;;;2.50;;
74926;SDS011;63488;48.092;-1.640;2023-09-19T14:17:16;6.85;;;2.28;;
74926;SDS011;63488;48.092;-1.640;2023-09-19T14:19:41;10.48;;;2.47;;
74926;SDS011;63488;48.092;-1.640;2023-09-19T14:22:09;8.75;;;2.75;;
74926;SDS011;63488;48.092;-1.640;2023-09-19T14:24:35;11.05;;;2.63;;
74926;SDS011;63488;48.092;-1.640;2023-09-19T14:27:01;9.95;;;2.92;;
74926;SDS011;63488;48.092;-1.640;2023-09-19T14:29:29;9.35;;;2.78;;
74926;SDS011;63488;48.092;-1.640;2023-09-19T14:31:55;9.80;;;2.90;;
74926;SDS011;63488;48.092;-1.640;2023-09-19T14:34:22;10.07;;;2.88;;
74926;SDS011;63488;48.092;-1.640;2023-09-19T14:36:47;11.43;;;2.90;;
74926;SDS011;63488;48.092;-1.640;2023-09-19T14:39:14;9.80;;;3.17;;
74926;SDS011;63488;48.092;-1.640;2023-09-19T14:41:39;13.63;;;3.13;;
74926;SDS011;63488;48.092;-1.640;2023-09-19T14:44:04;10.23;;;3.17;;
74926;SDS011;63488;48.092;-1.640;2023-09-19T14:46:30;9.55;;;2.53;;
74926;SDS011;63488;48.092;-1.640;2023-09-19T14:48:56;10.52;;;3.00;;
74926;SDS011;63488;48.092;-1.640;2023-09-19T14:51:24;12.75;;;2.92;;
74926;SDS011;63488;48.092;-1.640;2023-09-19T14:53:49;10.57;;;3.13;;
74926;SDS011;63488;48.092;-1.640;2023-09-19T14:56:15;11.27;;;2.90;;
74926;SDS011;63488;48.092;-1.640;2023-09-19T15:01:12;10.20;;;3.13;;
74926;SDS011;63488;48.092;-1.640;2023-09-19T15:03:38;11.77;;;3.00;;
74926;SDS011;63488;48.092;-1.640;2023-09-19T15:06:10;8.02;;;2.95;;
74926;SDS011;63488;48.092;-1.640;2023-09-19T15:08:39;10.60;;;2.67;;
74926;SDS011;63488;48.092;-1.640;2023-09-19T15:11:05;8.90;;;2.50;;
74926;SDS011;63488;48.092;-1.640;2023-09-19T15:13:32;10.07;;;3.22;;
74926;SDS011;63488;48.092;-1.640;2023-09-19T15:16:03;6.97;;;3.05;;
74926;SDS011;63488;48.092;-1.640;2023-09-19T15:18:29;10.38;;;2.92;;
74926;SDS011;63488;48.092;-1.640;2023-09-19T15:23:24;9.43;;;2.80;;